Terminal Aerodrome Forecast
Issued by NWS

Home | Current Version | Previous Version | Text Only | Print | Product List | Glossary On
Versions: 1 2 3 4 5 6 7 8 9 10 11 12 13 14 15
000
FTUS46 KSTO 110500
TAFMHR
TAF
KMHR 110520Z 1106/1206 18006KT P6SM BKN150
     FM111600 21007KT P6SM SCT150
     FM112100 25007KT P6SM SKC=

USA.gov is the U.S. government's official web portal to all federal, state and local government web resources and services.